Time;durP1;ratioP1;P1;durP2;ratioP2;P2;SDS_P1;SDS_P2;PMS_P1;PMS_P2;Temp;Humidity;BMP_temperature;BMP_pressure;BME280_temperature;BME280_humidity;BME280_pressure;Samples;Min_cycle;Max_cycle;Signal;HPM_P1;HPM_P2
2021/01/29 00:00:39;;;;;;;5.83;5.33;;;6.00;99.90;;;;;;5052928;28;20492;-81
2021/01/29 00:03:08;;;;;;;6.37;5.50;;;5.70;99.90;;;;;;5046222;28;20473;-81
2021/01/29 00:05:38;;;;;;;5.10;4.60;;;5.70;99.90;;;;;;5048879;28;20500;-80
2021/01/29 00:08:05;;;;;;;6.17;5.57;;;5.60;99.90;;;;;;5049046;28;20526;-80
2021/01/29 00:10:32;;;;;;;4.50;4.10;;;5.50;99.90;;;;;;5050990;28;20558;-83
2021/01/29 00:12:58;;;;;;;5.23;4.60;;;5.60;99.90;;;;;;5052077;28;20534;-83
2021/01/29 00:15:25;;;;;;;4.63;4.23;;;5.50;99.90;;;;;;5049155;28;20453;-81
2021/01/29 00:17:51;;;;;;;4.70;4.27;;;5.60;99.90;;;;;;5052997;28;20482;-80
2021/01/29 00:20:21;;;;;;;5.10;4.03;;;5.60;99.90;;;;;;5048843;28;20478;-82
2021/01/29 00:22:47;;;;;;;5.00;4.50;;;5.60;99.90;;;;;;5053945;28;20458;-81
2021/01/29 00:25:18;;;;;;;5.20;4.70;;;5.50;99.90;;;;;;5051531;28;20469;-82
2021/01/29 00:27:45;;;;;;;5.20;4.70;;;5.60;99.90;;;;;;5055785;28;20444;-81
2021/01/29 00:30:14;;;;;;;6.17;5.57;;;5.70;99.90;;;;;;5053520;28;20492;-81
2021/01/29 00:32:41;;;;;;;5.27;4.77;;;5.60;99.90;;;;;;5052831;28;20445;-81
2021/01/29 00:35:09;;;;;;;5.43;4.93;;;5.70;99.90;;;;;;5045429;28;20456;-81
2021/01/29 00:37:35;;;;;;;6.10;5.60;;;5.70;99.90;;;;;;5049068;28;21323;-81
2021/01/29 00:40:02;;;;;;;5.77;5.23;;;5.80;99.90;;;;;;5052694;28;20482;-81
2021/01/29 00:42:29;;;;;;;6.30;4.73;;;5.70;99.90;;;;;;5057447;28;21188;-81
2021/01/29 00:44:56;;;;;;;5.73;5.23;;;5.70;99.90;;;;;;5049852;28;20468;-82
2021/01/29 00:47:22;;;;;;;6.40;5.80;;;5.60;99.90;;;;;;5051073;28;20454;-81
2021/01/29 00:49:49;;;;;;;7.20;5.17;;;5.60;99.90;;;;;;5054030;28;20456;-81
2021/01/29 00:52:15;;;;;;;6.03;5.50;;;5.70;99.90;;;;;;5070795;28;20467;-84
2021/01/29 00:54:41;;;;;;;6.50;5.90;;;5.70;99.90;;;;;;5066225;28;20516;-83
2021/01/29 00:57:09;;;;;;;8.10;6.20;;;5.80;99.90;;;;;;5047324;28;20492;-81
2021/01/29 00:59:37;;;;;;;6.17;5.53;;;5.80;99.90;;;;;;5048257;28;20454;-80
2021/01/29 01:02:03;;;;;;;7.20;6.50;;;5.70;99.90;;;;;;5050831;28;20781;-81
2021/01/29 01:04:30;;;;;;;7.10;6.30;;;5.70;99.90;;;;;;5058384;28;20452;-82
2021/01/29 01:06:57;;;;;;;5.90;5.40;;;5.70;99.90;;;;;;5049314;28;20465;-81
2021/01/29 01:09:24;;;;;;;7.37;5.40;;;5.70;99.90;;;;;;5055628;28;20449;-83
2021/01/29 01:11:50;;;;;;;5.97;5.40;;;5.70;99.90;;;;;;5058140;28;20446;-81
2021/01/29 01:14:17;;;;;;;6.23;5.63;;;5.60;99.90;;;;;;5053605;28;20450;-80
2021/01/29 01:16:44;;;;;;;7.27;6.00;;;5.50;99.90;;;;;;5047591;28;20503;-80
2021/01/29 01:19:10;;;;;;;6.80;5.80;;;5.40;99.90;;;;;;5051927;28;20436;-80
2021/01/29 01:21:37;;;;;;;7.60;6.70;;;5.30;99.90;;;;;;5047528;28;20464;-81
2021/01/29 01:24:04;;;;;;;5.80;5.13;;;5.30;99.90;;;;;;5052669;28;20511;-80
2021/01/29 01:26:31;;;;;;;6.13;5.60;;;5.40;99.90;;;;;;5048675;28;20609;-80
2021/01/29 01:28:57;;;;;;;6.40;5.53;;;5.40;99.90;;;;;;5050609;28;20441;-79
2021/01/29 01:31:24;;;;;;;6.23;5.63;;;5.30;99.90;;;;;;5046636;28;20450;-78
2021/01/29 01:33:51;;;;;;;6.93;5.53;;;5.20;99.90;;;;;;5051955;28;21017;-79
2021/01/29 01:36:17;;;;;;;7.47;6.10;;;5.10;99.90;;;;;;5050451;28;20505;-82
2021/01/29 01:38:44;;;;;;;8.07;6.30;;;5.10;99.90;;;;;;5041660;28;20439;-79
2021/01/29 01:41:10;;;;;;;6.63;5.90;;;5.20;99.90;;;;;;5040432;28;20533;-79
2021/01/29 01:43:37;;;;;;;7.43;6.60;;;5.30;99.90;;;;;;5039991;28;20544;-79
2021/01/29 01:46:06;;;;;;;7.50;6.43;;;5.40;99.90;;;;;;5040681;28;20493;-80
2021/01/29 01:48:47;;;;;;;8.63;6.90;;;5.40;99.90;;;;;;5051221;28;21093;-81
2021/01/29 01:51:23;;;;;;;7.23;5.97;;;5.40;99.90;;;;;;5049525;28;20454;-80
2021/01/29 01:53:53;;;;;;;6.80;5.97;;;5.50;99.90;;;;;;5055277;28;21117;-80
2021/01/29 01:56:23;;;;;;;8.13;6.03;;;5.50;99.90;;;;;;5049397;28;20509;-80
2021/01/29 01:58:53;;;;;;;6.57;5.80;;;5.50;99.90;;;;;;5051124;28;20982;-83
2021/01/29 02:01:22;;;;;;;7.70;5.73;;;5.60;99.90;;;;;;5054331;28;20499;-80
2021/01/29 02:03:49;;;;;;;8.93;6.77;;;5.60;99.90;;;;;;5046531;28;20544;-79
2021/01/29 02:06:17;;;;;;;6.70;6.00;;;5.60;99.90;;;;;;5048509;28;20485;-79
2021/01/29 02:08:45;;;;;;;8.90;7.00;;;5.70;99.90;;;;;;5047324;28;20529;-80
2021/01/29 02:11:13;;;;;;;9.33;6.93;;;5.70;99.90;;;;;;5045378;28;20488;-78
2021/01/29 02:13:39;;;;;;;7.73;6.00;;;5.80;99.90;;;;;;5042512;28;20469;-80
2021/01/29 02:16:14;;;;;;;7.60;6.70;;;5.80;99.90;;;;;;5043587;28;20989;-81
2021/01/29 02:19:01;;;;;;;7.97;6.43;;;6.00;99.90;;;;;;5047186;28;20480;-80
2021/01/29 02:22:17;;;;;;;8.27;6.47;;;5.90;99.90;;;;;;5052996;28;20545;-79
2021/01/29 02:25:21;;;;;;;7.83;6.03;;;6.00;99.90;;;;;;5042738;28;20443;-80
2021/01/29 02:27:51;;;;;;;7.33;6.53;;;6.00;99.90;;;;;;5056059;28;20446;-81
2021/01/29 02:30:48;;;;;;;6.73;6.10;;;6.00;99.90;;;;;;5058783;28;20653;-79
2021/01/29 02:33:50;;;;;;;7.33;5.80;;;6.00;99.90;;;;;;5053863;28;20450;-80
2021/01/29 02:36:47;;;;;;;7.07;6.30;;;5.90;99.90;;;;;;5035937;28;20480;-84
2021/01/29 02:39:49;;;;;;;8.10;5.83;;;5.90;99.90;;;;;;5058053;28;20470;-80
2021/01/29 02:42:31;;;;;;;8.60;6.50;;;5.90;99.90;;;;;;5051631;28;20448;-81
2021/01/29 02:45:09;;;;;;;7.60;6.43;;;6.00;99.90;;;;;;5049399;28;20458;-81
2021/01/29 02:47:44;;;;;;;7.20;6.00;;;6.10;99.90;;;;;;5050998;28;20481;-79
2021/01/29 02:50:26;;;;;;;7.53;6.40;;;6.20;99.90;;;;;;5049331;28;20441;-82
2021/01/29 02:53:01;;;;;;;7.37;6.00;;;6.20;99.90;;;;;;5049251;28;20530;-79
2021/01/29 02:55:32;;;;;;;7.43;6.60;;;6.30;99.90;;;;;;5044568;28;22480;-79
2021/01/29 02:58:06;;;;;;;8.43;7.20;;;6.40;99.90;;;;;;5038113;28;20967;-79
2021/01/29 03:00:38;;;;;;;7.23;6.53;;;6.50;99.90;;;;;;5048680;28;20550;-78
2021/01/29 03:03:09;;;;;;;7.60;6.87;;;6.50;99.90;;;;;;5050583;28;20469;-79
2021/01/29 03:05:39;;;;;;;9.27;7.57;;;6.60;99.90;;;;;;5044756;28;20458;-78
2021/01/29 03:08:12;;;;;;;8.53;7.40;;;6.70;99.90;;;;;;5047971;28;20535;-81
2021/01/29 03:10:45;;;;;;;9.23;8.07;;;6.60;99.90;;;;;;5040826;28;20509;-78
2021/01/29 03:13:21;;;;;;;8.50;7.70;;;6.70;99.90;;;;;;5046668;28;20448;-79
2021/01/29 03:15:55;;;;;;;9.10;8.20;;;6.80;99.90;;;;;;5048481;28;20545;-80
2021/01/29 03:18:26;;;;;;;9.73;8.20;;;6.90;99.90;;;;;;5052284;28;20513;-79
2021/01/29 03:20:59;;;;;;;8.67;7.73;;;7.00;99.90;;;;;;5049994;28;20504;-79
2021/01/29 03:23:29;;;;;;;8.37;7.57;;;7.10;99.90;;;;;;5058292;28;20454;-80
2021/01/29 03:25:59;;;;;;;8.20;7.40;;;7.10;99.90;;;;;;5057182;28;20565;-81
2021/01/29 03:28:32;;;;;;;8.90;7.03;;;7.20;99.90;;;;;;5057331;28;20476;-79
2021/01/29 03:31:01;;;;;;;8.50;7.60;;;7.30;99.90;;;;;;5042381;28;20481;-82
2021/01/29 03:33:31;;;;;;;12.53;7.70;;;7.30;99.90;;;;;;5040720;28;20446;-78
2021/01/29 03:36:00;;;;;;;8.43;7.63;;;7.30;99.90;;;;;;5037772;28;20451;-79
2021/01/29 03:38:32;;;;;;;10.03;7.23;;;7.30;99.90;;;;;;5052987;28;20532;-82
2021/01/29 03:41:07;;;;;;;10.80;7.60;;;7.40;99.90;;;;;;5047308;28;20437;-79
2021/01/29 03:43:43;;;;;;;7.73;7.00;;;7.50;99.90;;;;;;5055598;28;20995;-79
2021/01/29 03:46:15;;;;;;;9.97;7.50;;;7.50;99.90;;;;;;5045314;28;20560;-83
2021/01/29 03:48:50;;;;;;;8.50;7.00;;;7.50;99.90;;;;;;5039428;28;20858;-80
2021/01/29 03:51:24;;;;;;;9.13;8.20;;;7.50;99.90;;;;;;5057807;28;20484;-83
2021/01/29 03:54:00;;;;;;;8.00;7.30;;;7.60;99.90;;;;;;5065335;28;20457;-81
2021/01/29 03:56:37;;;;;;;10.23;7.57;;;7.50;99.90;;;;;;5050966;28;21021;-79
2021/01/29 03:59:10;;;;;;;10.03;8.33;;;7.50;99.90;;;;;;5049837;28;20516;-80
2021/01/29 04:01:47;;;;;;;15.00;8.00;;;7.60;99.90;;;;;;5049365;28;20442;-80
2021/01/29 04:04:24;;;;;;;9.53;8.20;;;7.60;99.90;;;;;;5050955;28;20499;-84
2021/01/29 04:06:58;;;;;;;9.93;7.90;;;7.60;99.90;;;;;;5047412;28;20509;-79
2021/01/29 04:09:40;;;;;;;10.13;7.60;;;7.60;99.90;;;;;;5049046;28;20464;-79
2021/01/29 04:12:06;;;;;;;8.90;7.00;;;7.70;99.90;;;;;;5049000;28;20469;-80
2021/01/29 04:14:43;;;;;;;12.53;8.83;;;7.60;99.90;;;;;;5050065;28;20893;-79
2021/01/29 04:17:15;;;;;;;9.03;8.00;;;7.70;99.90;;;;;;5045119;28;20569;-79
2021/01/29 04:19:46;;;;;;;10.97;7.03;;;7.70;99.90;;;;;;5050485;28;20848;-79
2021/01/29 04:22:19;;;;;;;9.33;6.63;;;7.60;99.90;;;;;;5041454;28;20507;-80
2021/01/29 04:24:50;;;;;;;10.60;7.10;;;7.70;99.90;;;;;;5048593;28;20536;-78
2021/01/29 04:27:21;;;;;;;10.50;7.37;;;7.70;99.90;;;;;;5043919;28;20877;-79
2021/01/29 04:29:53;;;;;;;8.67;7.43;;;7.70;99.90;;;;;;5046457;28;20552;-80
2021/01/29 04:32:22;;;;;;;8.30;7.07;;;7.70;99.90;;;;;;5050065;28;20456;-79
2021/01/29 04:34:54;;;;;;;8.50;6.37;;;7.70;99.90;;;;;;5048684;28;20962;-79
2021/01/29 04:37:25;;;;;;;7.27;6.43;;;7.70;99.90;;;;;;5050369;28;20472;-80
2021/01/29 04:39:56;;;;;;;6.07;5.47;;;7.70;99.90;;;;;;5046240;28;21159;-78
2021/01/29 04:42:39;;;;;;;8.80;5.90;;;7.70;99.90;;;;;;5043556;28;20450;-78
2021/01/29 04:45:20;;;;;;;7.50;6.20;;;7.70;99.90;;;;;;5043534;28;20567;-80
2021/01/29 04:47:52;;;;;;;12.93;6.60;;;7.70;99.90;;;;;;5057685;28;20871;-80
2021/01/29 04:50:35;;;;;;;6.70;6.03;;;7.70;99.90;;;;;;5048405;28;20477;-80
2021/01/29 04:53:22;;;;;;;8.67;6.20;;;7.70;99.90;;;;;;5046034;28;20549;-78
2021/01/29 04:56:34;;;;;;;7.47;6.50;;;7.70;99.90;;;;;;5044005;28;20484;-80
2021/01/29 04:59:20;;;;;;;10.53;7.00;;;7.70;99.90;;;;;;5041263;28;20540;-79
2021/01/29 05:02:11;;;;;;;7.47;6.77;;;7.70;99.90;;;;;;5039632;28;20472;-78
2021/01/29 05:05:03;;;;;;;7.17;6.47;;;7.70;99.90;;;;;;5047858;28;20442;-79
2021/01/29 05:08:01;;;;;;;7.17;6.47;;;7.70;99.90;;;;;;5041354;28;20889;-78
2021/01/29 05:11:02;;;;;;;6.80;6.20;;;7.70;99.90;;;;;;5039958;28;20541;-83
2021/01/29 05:14:00;;;;;;;6.70;6.10;;;7.70;99.90;;;;;;5032734;28;20964;-79
2021/01/29 05:16:57;;;;;;;6.40;5.90;;;7.70;99.90;;;;;;5040463;28;20492;-79
2021/01/29 05:19:59;;;;;;;8.07;5.93;;;7.70;99.90;;;;;;5044888;28;20862;-81
2021/01/29 05:22:41;;;;;;;6.63;5.97;;;7.70;99.90;;;;;;5040162;28;20508;-78
2021/01/29 05:25:40;;;;;;;7.50;6.13;;;7.70;99.90;;;;;;5041481;28;20524;-78
2021/01/29 05:28:41;;;;;;;7.40;6.50;;;7.70;99.90;;;;;;5043060;28;20454;-81
2021/01/29 05:31:48;;;;;;;6.97;6.10;;;7.70;99.90;;;;;;4993894;28;20487;-79
2021/01/29 05:34:37;;;;;;;10.40;6.70;;;7.80;99.90;;;;;;5006050;28;20459;-77
2021/01/29 05:37:54;;;;;;;8.20;6.60;;;7.80;99.90;;;;;;5044590;28;20549;-78
2021/01/29 05:40:40;;;;;;;8.70;7.50;;;7.80;99.90;;;;;;5030900;28;20458;-82
2021/01/29 05:43:35;;;;;;;9.63;7.00;;;7.80;99.90;;;;;;5051404;28;20453;-81
2021/01/29 05:46:14;;;;;;;7.03;6.30;;;7.80;99.90;;;;;;5040592;28;20467;-82
2021/01/29 05:48:55;;;;;;;7.63;6.70;;;7.80;99.90;;;;;;5047499;28;20488;-79
2021/01/29 05:51:53;;;;;;;8.43;6.80;;;7.90;99.90;;;;;;5045003;28;20464;-78
2021/01/29 05:54:44;;;;;;;11.60;7.77;;;7.80;99.90;;;;;;5047491;28;20474;-79
2021/01/29 05:57:37;;;;;;;8.87;7.97;;;7.90;99.90;;;;;;5046974;28;20469;-80
2021/01/29 06:00:15;;;;;;;8.53;7.63;;;7.80;99.90;;;;;;5049371;28;20526;-84
2021/01/29 06:03:41;;;;;;;8.70;7.83;;;7.80;99.90;;;;;;5043536;28;20452;-79
2021/01/29 06:06:36;;;;;;;8.97;7.70;;;7.80;99.90;;;;;;4970554;28;20484;-83
2021/01/29 06:09:17;;;;;;;8.93;7.80;;;7.80;99.90;;;;;;4990769;28;20489;-78
2021/01/29 06:12:05;;;;;;;9.60;8.60;;;7.80;99.90;;;;;;5036926;28;21027;-83
2021/01/29 06:15:05;;;;;;;8.70;7.60;;;7.90;99.90;;;;;;5052240;28;20989;-78
2021/01/29 06:18:08;;;;;;;8.83;7.60;;;7.80;99.90;;;;;;5043969;28;20498;-78
2021/01/29 06:21:17;;;;;;;10.10;7.67;;;7.80;99.90;;;;;;5049599;28;20450;-78
2021/01/29 06:24:06;;;;;;;7.90;7.10;;;7.80;99.90;;;;;;5041682;28;20449;-78
2021/01/29 06:27:00;;;;;;;11.73;7.60;;;7.80;99.90;;;;;;5038875;28;21048;-82
2021/01/29 06:29:35;;;;;;;8.77;7.43;;;7.80;99.90;;;;;;5047688;28;20481;-79
2021/01/29 06:32:41;;;;;;;9.73;8.00;;;7.80;99.90;;;;;;5049287;28;20910;-78
2021/01/29 06:35:24;;;;;;;10.90;8.60;;;7.70;99.90;;;;;;5045829;28;20457;-80
2021/01/29 06:38:02;;;;;;;9.23;7.27;;;7.80;99.90;;;;;;5037148;28;21294;-80
2021/01/29 06:40:34;;;;;;;9.23;7.87;;;7.80;99.90;;;;;;5046109;28;20796;-79
2021/01/29 06:43:37;;;;;;;9.30;7.77;;;7.80;99.90;;;;;;5048317;28;20444;-82
2021/01/29 06:46:36;;;;;;;10.80;9.70;;;7.90;99.90;;;;;;5024730;28;20527;-78
2021/01/29 06:49:11;;;;;;;9.50;8.50;;;7.90;99.90;;;;;;5040418;28;20290;-79
2021/01/29 06:52:11;;;;;;;8.80;7.23;;;7.90;99.90;;;;;;5052452;28;20945;-82
2021/01/29 06:55:00;;;;;;;7.37;6.70;;;8.00;99.90;;;;;;5068302;28;20466;-89
2021/01/29 06:57:50;;;;;;;8.90;7.97;;;7.90;99.90;;;;;;5046010;28;20455;-84
2021/01/29 07:00:45;;;;;;;8.17;7.40;;;7.90;99.90;;;;;;5059052;28;20488;-85
2021/01/29 07:03:59;;;;;;;9.27;7.53;;;7.90;99.90;;;;;;5068885;28;20442;-83
2021/01/29 07:06:44;;;;;;;10.90;7.47;;;7.90;99.90;;;;;;5063033;28;20486;-84
2021/01/29 07:09:19;;;;;;;9.30;7.43;;;8.00;99.90;;;;;;5064583;28;20451;-81
2021/01/29 07:12:30;;;;;;;8.60;7.17;;;8.00;99.90;;;;;;5055291;28;20529;-82
2021/01/29 07:15:19;;;;;;;8.80;7.90;;;8.10;99.90;;;;;;5062671;28;20835;-81
2021/01/29 07:18:04;;;;;;;8.00;6.27;;;8.20;99.90;;;;;;5061228;28;20461;-80
2021/01/29 07:20:46;;;;;;;8.43;6.73;;;8.00;99.90;;;;;;5054456;28;20552;-80
2021/01/29 07:23:46;;;;;;;7.27;6.50;;;8.00;99.90;;;;;;5054584;28;20514;-81
2021/01/29 07:26:26;;;;;;;7.57;6.37;;;8.00;99.90;;;;;;5056850;28;20470;-82
2021/01/29 07:29:06;;;;;;;8.03;6.43;;;8.00;99.90;;;;;;5058957;28;20456;-80
2021/01/29 07:31:44;;;;;;;7.70;5.73;;;8.00;99.90;;;;;;5053340;28;20532;-80
2021/01/29 07:34:28;;;;;;;7.00;4.60;;;8.00;99.90;;;;;;5049816;28;20458;-81
2021/01/29 07:37:18;;;;;;;11.50;5.60;;;8.00;99.90;;;;;;5059906;28;20487;-82
2021/01/29 07:40:08;;;;;;;6.47;5.50;;;8.00;99.90;;;;;;5062621;28;20438;-81
2021/01/29 07:43:09;;;;;;;5.10;4.60;;;8.00;99.90;;;;;;5053285;28;20480;-82
2021/01/29 07:45:53;;;;;;;4.90;4.40;;;8.00;99.90;;;;;;5055529;28;20453;-81
2021/01/29 07:48:47;;;;;;;5.03;4.63;;;8.10;99.90;;;;;;5061179;28;20525;-81
2021/01/29 07:51:25;;;;;;;4.50;3.77;;;8.10;99.90;;;;;;5051369;28;20504;-81
2021/01/29 07:54:09;;;;;;;5.00;4.57;;;8.10;99.90;;;;;;5059545;28;20533;-82
2021/01/29 07:56:50;;;;;;;6.50;3.30;;;8.10;99.90;;;;;;5056762;28;20461;-81
2021/01/29 07:59:33;;;;;;;4.73;4.27;;;8.10;99.90;;;;;;5057199;28;20438;-82
2021/01/29 08:02:13;;;;;;;4.27;3.67;;;8.10;99.90;;;;;;5059114;28;20451;-80
2021/01/29 08:04:51;;;;;;;4.83;3.20;;;8.20;99.90;;;;;;5060366;28;20448;-83
2021/01/29 08:07:25;;;;;;;3.50;3.10;;;8.20;99.90;;;;;;5055499;28;20474;-81
2021/01/29 08:09:56;;;;;;;3.50;3.20;;;8.20;99.90;;;;;;5055443;28;20465;-82
2021/01/29 08:12:25;;;;;;;3.30;2.90;;;8.20;99.90;;;;;;5058492;28;20496;-81
2021/01/29 08:15:25;;;;;;;2.60;2.40;;;8.30;99.90;;;;;;5054235;28;20446;-81
2021/01/29 08:18:12;;;;;;;3.93;2.50;;;8.30;99.90;;;;;;5050612;28;20475;-82
2021/01/29 08:20:57;;;;;;;2.03;1.83;;;8.30;99.90;;;;;;5048516;28;20452;-79
2021/01/29 08:23:33;;;;;;;2.50;1.73;;;8.30;99.90;;;;;;5048596;28;20455;-78
2021/01/29 08:26:31;;;;;;;1.57;1.47;;;8.40;99.90;;;;;;5050289;28;20475;-80
2021/01/29 08:29:32;;;;;;;1.27;1.17;;;8.50;99.90;;;;;;5031750;28;20469;-80
2021/01/29 08:32:30;;;;;;;1.20;1.10;;;8.50;99.90;;;;;;5054928;28;20463;-80
2021/01/29 08:35:21;;;;;;;1.30;1.20;;;8.60;99.90;;;;;;5065846;28;20438;-80
2021/01/29 08:37:56;;;;;;;2.87;1.40;;;8.80;99.90;;;;;;5059927;28;20445;-80
2021/01/29 08:40:30;;;;;;;1.50;1.07;;;8.80;99.90;;;;;;5056018;28;20477;-80
2021/01/29 08:43:43;;;;;;;2.00;1.30;;;8.80;99.90;;;;;;5046799;28;20446;-80
2021/01/29 08:46:34;;;;;;;1.37;1.00;;;8.90;96.80;;;;;;5049822;28;20468;-80
2021/01/29 08:49:18;;;;;;;0.77;0.77;;;9.00;94.80;;;;;;5043982;28;20450;-81
2021/01/29 08:51:50;;;;;;;2.10;0.80;;;9.00;93.90;;;;;;5050244;28;20486;-80
2021/01/29 08:54:34;;;;;;;1.17;0.60;;;9.00;92.40;;;;;;5041242;28;20547;-79
2021/01/29 08:57:14;;;;;;;0.57;0.57;;;9.00;92.70;;;;;;5044286;28;20538;-80
2021/01/29 08:59:41;;;;;;;0.50;0.50;;;9.00;92.60;;;;;;5046589;28;20967;-79
2021/01/29 09:02:31;;;;;;;2.30;0.93;;;8.90;92.10;;;;;;5042964;28;20792;-78
2021/01/29 09:05:02;;;;;;;1.33;1.10;;;8.90;92.20;;;;;;5041562;28;20448;-84
2021/01/29 09:07:31;;;;;;;0.90;0.80;;;8.90;92.70;;;;;;5051683;28;20217;-82
2021/01/29 09:10:10;;;;;;;1.20;0.87;;;8.90;92.70;;;;;;5045062;28;20960;-78
2021/01/29 09:12:38;;;;;;;1.07;0.50;;;8.80;91.60;;;;;;5047450;28;20449;-78
2021/01/29 09:15:14;;;;;;;0.50;0.40;;;8.90;91.90;;;;;;5044395;28;21295;-81
2021/01/29 09:17:46;;;;;;;0.87;0.50;;;8.90;91.40;;;;;;5049874;28;20554;-79
2021/01/29 09:20:14;;;;;;;0.50;0.40;;;8.90;91.30;;;;;;5045236;28;20470;-78
2021/01/29 09:22:50;;;;;;;1.43;0.33;;;8.90;91.70;;;;;;5054129;28;20515;-78
2021/01/29 09:25:23;;;;;;;0.57;0.57;;;8.90;91.10;;;;;;5044706;28;20458;-78
2021/01/29 09:28:01;;;;;;;1.80;0.70;;;8.90;91.30;;;;;;5041904;28;20469;-77
2021/01/29 09:30:31;;;;;;;0.70;0.60;;;8.90;91.00;;;;;;5045415;28;21053;-79
2021/01/29 09:33:02;;;;;;;1.07;0.70;;;9.00;91.30;;;;;;5046390;28;20495;-77
2021/01/29 09:35:50;;;;;;;0.50;0.50;;;8.90;90.90;;;;;;5044000;28;20536;-78
2021/01/29 09:38:22;;;;;;;1.07;0.63;;;8.90;90.90;;;;;;5045587;28;20516;-78
2021/01/29 09:40:54;;;;;;;0.87;0.57;;;8.80;91.10;;;;;;5045223;28;20511;-78
2021/01/29 09:43:55;;;;;;;1.10;0.97;;;8.90;91.10;;;;;;5049116;28;20533;-78
2021/01/29 09:46:26;;;;;;;0.70;0.60;;;8.90;90.50;;;;;;5045727;28;20470;-77
2021/01/29 09:49:07;;;;;;;0.80;0.80;;;9.00;90.10;;;;;;5043632;28;20443;-79
2021/01/29 09:51:56;;;;;;;2.57;0.70;;;9.10;89.60;;;;;;5042534;28;20450;-78
2021/01/29 09:54:28;;;;;;;0.40;0.40;;;9.20;89.80;;;;;;5051628;28;20446;-79
2021/01/29 09:57:00;;;;;;;0.83;0.40;;;9.20;89.10;;;;;;5060266;28;20985;-80
2021/01/29 09:59:45;;;;;;;2.30;0.60;;;9.20;89.10;;;;;;5052019;28;20453;-81
2021/01/29 10:02:28;;;;;;;1.70;0.50;;;9.30;88.50;;;;;;5045490;28;20541;-77
2021/01/29 10:05:05;;;;;;;1.27;0.80;;;9.30;88.70;;;;;;5048656;28;20454;-78
2021/01/29 10:07:36;;;;;;;2.20;0.83;;;9.30;89.10;;;;;;5064708;28;20469;-79
2021/01/29 10:10:08;;;;;;;1.37;0.80;;;9.30;89.20;;;;;;5058793;28;20446;-78
2021/01/29 10:12:40;;;;;;;0.90;0.60;;;9.30;90.00;;;;;;5065517;28;20959;-81
2021/01/29 10:15:16;;;;;;;2.00;0.97;;;9.30;90.00;;;;;;5072962;28;20441;-83
2021/01/29 10:17:53;;;;;;;2.13;0.90;;;9.20;90.50;;;;;;5064257;28;20466;-83
2021/01/29 10:20:25;;;;;;;0.70;0.50;;;9.20;90.60;;;;;;5043919;28;21144;-79
2021/01/29 10:23:24;;;;;;;1.13;0.80;;;9.20;90.40;;;;;;5048909;28;20837;-77
2021/01/29 10:26:20;;;;;;;2.20;0.87;;;9.20;90.30;;;;;;5042504;28;20523;-79
2021/01/29 10:29:09;;;;;;;0.73;0.73;;;9.10;90.70;;;;;;5029560;28;20546;-79
2021/01/29 10:31:46;;;;;;;1.10;0.83;;;9.10;90.70;;;;;;5038614;28;20443;-77
2021/01/29 10:34:24;;;;;;;0.97;0.97;;;9.00;91.20;;;;;;5044362;28;20506;-78
2021/01/29 10:37:03;;;;;;;1.27;1.00;;;8.90;91.90;;;;;;5036645;28;20507;-76
2021/01/29 10:39:44;;;;;;;0.40;0.40;;;8.80;92.70;;;;;;5042613;28;20464;-76
2021/01/29 10:42:16;;;;;;;1.10;0.80;;;8.80;92.40;;;;;;5046405;28;20962;-79
2021/01/29 10:44:44;;;;;;;0.90;0.90;;;8.80;92.50;;;;;;5048222;28;20552;-77
2021/01/29 10:47:28;;;;;;;0.83;0.70;;;8.80;91.70;;;;;;5043218;28;20536;-77
2021/01/29 10:49:58;;;;;;;0.60;0.60;;;8.80;91.50;;;;;;5043329;28;20716;-77
2021/01/29 10:52:39;;;;;;;1.53;1.00;;;8.90;90.70;;;;;;5040132;28;20975;-77
2021/01/29 10:55:16;;;;;;;4.87;0.70;;;8.90;90.80;;;;;;5035541;28;21947;-75
2021/01/29 10:57:49;;;;;;;0.80;0.80;;;9.00;90.30;;;;;;5039266;28;20449;-74
2021/01/29 11:00:18;;;;;;;2.00;0.70;;;9.00;90.40;;;;;;5041288;28;20510;-84
2021/01/29 11:02:49;;;;;;;1.15;0.80;;;9.00;89.90;;;;;;5049322;28;20533;-77
2021/01/29 11:05:21;;;;;;;0.85;0.73;;;9.00;89.20;;;;;;5048497;28;20440;-85
2021/01/29 11:07:52;;;;;;;1.20;0.90;;;9.00;89.60;;;;;;5037789;28;20456;-79
2021/01/29 11:10:31;;;;;;;3.37;1.00;;;9.00;89.70;;;;;;5047168;28;20211;-82
2021/01/29 11:13:05;;;;;;;0.60;0.60;;;9.00;90.00;;;;;;5045373;28;20459;-78
2021/01/29 11:15:37;;;;;;;2.10;0.73;;;9.10;88.60;;;;;;5036630;28;20204;-80
2021/01/29 11:18:14;;;;;;;2.13;0.90;;;9.10;88.30;;;;;;5050514;28;20553;-82
2021/01/29 11:20:42;;;;;;;2.40;1.13;;;9.10;87.20;;;;;;5058131;28;20496;-79
2021/01/29 11:23:22;;;;;;;0.80;0.80;;;9.10;86.00;;;;;;5048865;28;20798;-78
2021/01/29 11:26:06;;;;;;;2.57;1.13;;;9.20;86.20;;;;;;5047564;28;21204;-78
2021/01/29 11:28:44;;;;;;;2.40;0.83;;;9.20;84.90;;;;;;5049502;28;20501;-80
2021/01/29 11:31:16;;;;;;;2.83;0.67;;;9.20;85.20;;;;;;5053611;28;20583;-78
2021/01/29 11:33:47;;;;;;;0.80;0.80;;;9.10;84.60;;;;;;5056773;28;20480;-78
2021/01/29 11:36:28;;;;;;;1.10;1.00;;;9.10;84.10;;;;;;5048069;28;20443;-79
2021/01/29 11:39:06;;;;;;;3.50;0.70;;;9.10;84.00;;;;;;5041524;28;20450;-77
2021/01/29 11:41:44;;;;;;;5.37;1.10;;;9.20;83.80;;;;;;5049562;28;20455;-78
2021/01/29 11:44:19;;;;;;;6.30;1.70;;;9.30;83.00;;;;;;5040198;28;20479;-78
2021/01/29 11:46:55;;;;;;;3.35;1.20;;;9.30;82.90;;;;;;5044252;28;20444;-81
2021/01/29 11:49:28;;;;;;;4.97;1.30;;;9.40;81.70;;;;;;5047664;28;20195;-81
2021/01/29 11:52:10;;;;;;;2.00;1.00;;;9.50;79.60;;;;;;5059468;28;20869;-83
2021/01/29 11:54:45;;;;;;;5.40;1.50;;;9.50;78.90;;;;;;5065958;28;20437;-84
2021/01/29 11:57:16;;;;;;;4.07;1.30;;;9.50;79.30;;;;;;5057911;28;20477;-79
2021/01/29 11:59:55;;;;;;;2.40;1.00;;;9.60;78.80;;;;;;5054538;28;20477;-79
2021/01/29 12:02:29;;;;;;;4.00;1.57;;;9.60;76.70;;;;;;5055489;28;20465;-80
2021/01/29 12:05:12;;;;;;;5.83;1.13;;;9.80;76.50;;;;;;5052651;28;20461;-82
2021/01/29 12:07:45;;;;;;;4.30;1.43;;;9.90;75.30;;;;;;5048630;28;20497;-79
2021/01/29 12:10:20;;;;;;;2.33;1.03;;;10.00;74.70;;;;;;5041000;28;20454;-81
2021/01/29 12:12:54;;;;;;;4.83;1.00;;;9.90;74.00;;;;;;5050002;28;20464;-81
2021/01/29 12:15:27;;;;;;;6.93;1.60;;;10.00;72.90;;;;;;5050391;28;20454;-80
2021/01/29 12:17:59;;;;;;;4.73;1.20;;;10.00;73.10;;;;;;5054790;28;20473;-84
2021/01/29 12:20:30;;;;;;;4.93;1.43;;;10.10;72.90;;;;;;5055591;28;20549;-80
2021/01/29 12:23:09;;;;;;;3.50;1.40;;;10.10;72.70;;;;;;5050597;28;20789;-79
2021/01/29 12:26:06;;;;;;;4.00;1.70;;;10.20;72.80;;;;;;5050909;28;21050;-80
2021/01/29 12:28:48;;;;;;;3.33;1.10;;;10.40;73.00;;;;;;5041132;28;20194;-80
2021/01/29 12:31:27;;;;;;;11.47;2.37;;;10.40;72.80;;;;;;5040950;28;20453;-80
2021/01/29 12:33:58;;;;;;;1.90;1.17;;;10.30;72.60;;;;;;5045697;28;20449;-78
2021/01/29 12:36:27;;;;;;;6.43;1.10;;;10.30;73.30;;;;;;5039860;28;20829;-79
2021/01/29 12:39:00;;;;;;;3.43;1.40;;;10.40;73.50;;;;;;5039834;28;20496;-79
2021/01/29 12:41:36;;;;;;;2.67;1.40;;;10.40;74.00;;;;;;5045133;28;20451;-78
2021/01/29 12:44:24;;;;;;;1.83;0.90;;;10.40;74.30;;;;;;5046271;28;20446;-80
2021/01/29 12:46:58;;;;;;;2.23;1.03;;;10.30;73.40;;;;;;5043254;28;20463;-79
2021/01/29 12:49:36;;;;;;;3.70;1.03;;;10.20;73.60;;;;;;5042589;28;20538;-78
2021/01/29 12:52:12;;;;;;;2.60;1.00;;;10.30;74.00;;;;;;5043489;28;20971;-79
2021/01/29 12:54:44;;;;;;;2.87;1.13;;;10.10;73.50;;;;;;5047569;28;20458;-78
2021/01/29 12:57:16;;;;;;;3.03;1.40;;;10.20;73.70;;;;;;5049630;28;20486;-79
2021/01/29 12:59:47;;;;;;;5.77;1.20;;;10.30;73.40;;;;;;5047537;28;20442;-78
2021/01/29 13:02:52;;;;;;;4.97;1.40;;;10.40;73.90;;;;;;5047023;28;20442;-78
2021/01/29 13:05:27;;;;;;;4.57;1.20;;;10.50;72.60;;;;;;5042811;28;20662;-80
2021/01/29 13:08:09;;;;;;;6.80;1.47;;;10.50;72.80;;;;;;5052621;28;20523;-81
2021/01/29 13:11:01;;;;;;;5.67;1.37;;;10.50;72.80;;;;;;5051709;28;20937;-82
2021/01/29 13:13:38;;;;;;;5.13;1.23;;;10.30;72.40;;;;;;5049437;28;20481;-79
2021/01/29 13:16:14;;;;;;;5.30;1.30;;;10.10;72.00;;;;;;5051117;28;20797;-80
2021/01/29 13:18:55;;;;;;;8.37;1.20;;;10.20;72.10;;;;;;5046687;28;20919;-80
2021/01/29 13:21:27;;;;;;;6.23;1.40;;;10.20;72.40;;;;;;5047751;28;20469;-78
2021/01/29 13:23:57;;;;;;;3.13;1.47;;;10.30;72.70;;;;;;5050564;28;20519;-79
2021/01/29 13:26:33;;;;;;;2.30;1.00;;;10.50;73.10;;;;;;5047263;28;20465;-78
2021/01/29 13:29:03;;;;;;;3.60;1.10;;;10.70;72.40;;;;;;5052644;28;20449;-79
2021/01/29 13:31:34;;;;;;;5.50;1.27;;;10.50;72.50;;;;;;5050307;28;20496;-79
2021/01/29 13:34:03;;;;;;;1.40;0.80;;;10.80;73.00;;;;;;5046453;28;20446;-78
2021/01/29 13:36:34;;;;;;;2.30;0.87;;;10.60;72.40;;;;;;5044091;28;20477;-78
2021/01/29 13:39:14;;;;;;;3.30;1.33;;;10.40;72.20;;;;;;5041841;28;20455;-79
2021/01/29 13:41:48;;;;;;;1.60;0.70;;;10.40;72.70;;;;;;5047460;28;21258;-79
2021/01/29 13:44:37;;;;;;;1.50;0.90;;;10.20;72.70;;;;;;5042084;28;20787;-79
2021/01/29 13:47:06;;;;;;;3.03;1.10;;;10.20;73.30;;;;;;5042941;28;20493;-78
2021/01/29 13:49:36;;;;;;;2.37;0.93;;;10.20;73.00;;;;;;5039460;28;20914;-78
2021/01/29 13:52:23;;;;;;;3.73;1.13;;;10.10;73.20;;;;;;5040915;28;20443;-78
2021/01/29 13:54:51;;;;;;;1.53;1.40;;;10.20;73.60;;;;;;5042175;28;20511;-79